createdAt,value
2023-05-06T00:00:40.476Z,3.00
2023-05-06T00:01:40.455Z,2.70
2023-05-06T00:02:40.480Z,3.00
2023-05-06T00:03:40.515Z,2.90
2023-05-06T00:04:40.451Z,3.30
2023-05-06T00:05:40.410Z,3.00
2023-05-06T00:06:40.386Z,3.00
2023-05-06T00:07:40.417Z,2.80
2023-05-06T00:08:40.387Z,3.10
2023-05-06T00:09:40.355Z,3.10
2023-05-06T00:10:40.345Z,3.10
2023-05-06T00:11:40.332Z,3.20
2023-05-06T00:12:40.355Z,3.20
2023-05-06T00:13:40.299Z,3.20
2023-05-06T00:14:40.302Z,3.00
2023-05-06T00:15:40.290Z,3.30
2023-05-06T00:16:40.385Z,3.00
2023-05-06T00:17:40.290Z,3.00
2023-05-06T00:19:56.379Z,2.90
2023-05-06T00:20:57.338Z,3.30
2023-05-06T00:21:57.333Z,2.80
2023-05-06T00:22:57.333Z,3.10
2023-05-06T00:23:57.301Z,2.80
2023-05-06T00:24:57.307Z,3.00
2023-05-06T00:25:57.282Z,3.10
2023-05-06T00:26:57.257Z,3.20
2023-05-06T00:27:57.311Z,3.10
2023-05-06T00:28:57.241Z,2.80
2023-05-06T00:29:57.228Z,3.40
2023-05-06T00:30:57.212Z,2.90
2023-05-06T00:31:57.636Z,3.00
2023-05-06T00:32:57.275Z,2.90
2023-05-06T00:33:57.187Z,2.80
2023-05-06T00:34:57.157Z,3.00
2023-05-06T00:35:57.164Z,2.70
2023-05-06T00:36:57.167Z,2.70
2023-05-06T00:37:57.131Z,2.50
2023-05-06T00:38:57.104Z,3.00
2023-05-06T00:39:57.110Z,3.20
2023-05-06T00:40:57.096Z,2.40
2023-05-06T00:41:57.076Z,2.80
2023-05-06T00:42:57.048Z,2.20
2023-05-06T00:43:57.038Z,2.60
2023-05-06T00:44:57.019Z,2.20
2023-05-06T00:45:57.132Z,2.40
2023-05-06T00:46:57.006Z,2.50
2023-05-06T00:47:57.021Z,2.30
2023-05-06T00:48:56.962Z,2.70
2023-05-06T00:49:56.979Z,2.50
2023-05-06T00:50:56.985Z,2.40
2023-05-06T00:51:56.927Z,2.70
2023-05-06T00:52:56.915Z,2.50
2023-05-06T00:53:56.911Z,2.40
2023-05-06T00:54:56.949Z,2.70
2023-05-06T00:55:56.880Z,2.60
2023-05-06T00:56:56.871Z,2.20
2023-05-06T00:57:56.852Z,2.40
2023-05-06T00:58:56.829Z,2.50
2023-05-06T00:59:56.837Z,2.40
2023-05-06T01:00:56.838Z,2.40
2023-05-06T01:01:56.805Z,2.30
2023-05-06T01:02:56.866Z,2.10
2023-05-06T01:03:56.963Z,2.70
2023-05-06T01:04:56.841Z,2.40
2023-05-06T01:05:56.820Z,2.30
2023-05-06T01:06:56.772Z,2.60
2023-05-06T01:07:56.726Z,2.50
2023-05-06T01:08:56.698Z,2.40
2023-05-06T01:09:56.736Z,2.20
2023-05-06T01:10:56.704Z,2.30
2023-05-06T01:11:56.690Z,2.50
2023-05-06T01:12:56.697Z,2.20
2023-05-06T01:13:56.651Z,2.40
2023-05-06T01:14:56.675Z,2.60
2023-05-06T01:15:56.641Z,2.40
2023-05-06T01:16:56.648Z,2.50
2023-05-06T01:17:56.687Z,2.60
2023-05-06T01:18:56.636Z,2.50
2023-05-06T01:19:56.587Z,2.60
2023-05-06T01:20:56.541Z,2.40
2023-05-06T01:21:56.530Z,3.40
2023-05-06T01:22:56.575Z,2.60
2023-05-06T01:23:56.560Z,3.00
2023-05-06T01:24:56.496Z,2.80
2023-05-06T01:25:56.507Z,2.80
2023-05-06T01:26:56.474Z,3.20
2023-05-06T01:27:56.481Z,2.70
2023-05-06T01:28:56.486Z,3.00
2023-05-06T01:29:56.468Z,3.00
2023-05-06T01:30:56.538Z,2.70
2023-05-06T01:31:56.410Z,2.90
2023-05-06T01:32:56.390Z,3.50
2023-05-06T01:33:56.416Z,3.20
2023-05-06T01:34:56.353Z,3.10
2023-05-06T01:35:56.364Z,3.20
2023-05-06T01:36:56.380Z,3.30
2023-05-06T01:37:56.333Z,3.30
2023-05-06T01:38:56.360Z,3.00
2023-05-06T01:39:56.304Z,3.00
2023-05-06T01:40:56.288Z,3.50
2023-05-06T01:41:56.293Z,3.10
2023-05-06T01:42:56.257Z,3.10
2023-05-06T01:43:56.269Z,2.90
2023-05-06T01:44:56.227Z,3.10
2023-05-06T01:45:56.235Z,2.90
2023-05-06T01:46:56.205Z,2.90
2023-05-06T01:47:56.248Z,2.90
2023-05-06T01:48:56.181Z,2.90
2023-05-06T01:49:56.181Z,3.10
2023-05-06T01:50:56.152Z,3.00
2023-05-06T01:51:56.156Z,3.00
2023-05-06T01:52:56.128Z,2.60
2023-05-06T01:53:56.110Z,2.70
2023-05-06T01:54:56.104Z,2.80
2023-05-06T01:55:56.138Z,3.00
2023-05-06T01:56:56.143Z,2.40
2023-05-06T01:57:56.056Z,2.90
2023-05-06T01:58:56.042Z,2.90
2023-05-06T01:59:56.046Z,2.70
2023-05-06T02:00:56.031Z,2.80
2023-05-06T02:01:56.077Z,3.10
2023-05-06T02:02:56.146Z,3.00
2023-05-06T02:03:56.226Z,2.60
2023-05-06T02:04:55.982Z,3.10
2023-05-06T02:05:55.956Z,3.10
2023-05-06T02:06:55.943Z,2.90
2023-05-06T02:07:55.943Z,2.70
2023-05-06T02:08:55.919Z,2.60
2023-05-06T02:09:55.927Z,3.20
2023-05-06T02:10:55.924Z,2.90
2023-05-06T02:11:55.875Z,2.50
2023-05-06T02:12:55.905Z,2.50
2023-05-06T02:13:55.856Z,2.80
2023-05-06T02:14:55.857Z,2.60
2023-05-06T02:15:55.914Z,2.80
2023-05-06T02:16:55.803Z,3.00
2023-05-06T02:17:55.854Z,2.60
2023-05-06T02:18:55.819Z,2.70
2023-05-06T02:19:55.773Z,2.80
2023-05-06T02:20:55.758Z,2.60
2023-05-06T02:21:55.760Z,2.80
2023-05-06T02:22:55.769Z,2.60
2023-05-06T02:23:55.731Z,2.50
2023-05-06T02:24:55.699Z,2.50
2023-05-06T02:25:55.692Z,2.60
2023-05-06T02:26:55.679Z,2.30
2023-05-06T02:27:55.671Z,2.40
2023-05-06T02:28:55.663Z,2.60
2023-05-06T02:29:55.664Z,2.80
2023-05-06T02:30:55.628Z,2.60
2023-05-06T02:31:55.633Z,2.60
2023-05-06T02:32:55.639Z,2.50
2023-05-06T02:33:55.615Z,2.40
2023-05-06T02:34:55.568Z,2.50
2023-05-06T02:35:55.573Z,2.40
2023-05-06T02:36:55.556Z,2.40
2023-05-06T02:37:55.558Z,2.60
2023-05-06T02:38:55.514Z,2.70
2023-05-06T02:39:55.506Z,2.60
2023-05-06T02:40:55.524Z,2.50
2023-05-06T02:41:55.503Z,2.70
2023-05-06T02:42:55.524Z,2.40
2023-05-06T02:43:55.458Z,2.60
2023-05-06T02:44:55.439Z,2.50
2023-05-06T02:45:55.517Z,2.40
2023-05-06T02:46:55.425Z,2.50
2023-05-06T02:47:55.433Z,2.60
2023-05-06T02:48:55.382Z,2.50
2023-05-06T02:49:55.387Z,2.40
2023-05-06T02:50:55.357Z,2.60
2023-05-06T02:51:55.568Z,2.30
2023-05-06T02:52:55.505Z,2.40
2023-05-06T02:53:55.329Z,2.50
2023-05-06T02:54:55.315Z,2.70
2023-05-06T02:55:55.408Z,2.90
2023-05-06T02:56:55.292Z,2.70
2023-05-06T02:57:55.276Z,3.20
2023-05-06T02:58:55.249Z,3.50
2023-05-06T02:59:55.256Z,3.30
2023-05-06T03:00:55.262Z,4.00
2023-05-06T03:01:55.219Z,4.00
2023-05-06T03:02:55.238Z,4.00
2023-05-06T03:03:55.246Z,3.80
2023-05-06T03:04:55.190Z,5.00
2023-05-06T03:05:55.184Z,4.30
2023-05-06T03:06:55.159Z,4.40
2023-05-06T03:07:55.130Z,5.00
2023-05-06T03:08:55.126Z,5.10
2023-05-06T03:09:55.136Z,6.00
2023-05-06T03:10:55.130Z,6.80
2023-05-06T03:11:55.103Z,7.20
2023-05-06T03:12:55.167Z,7.70
2023-05-06T03:13:55.070Z,8.00
2023-05-06T03:14:55.072Z,8.20
2023-05-06T03:15:55.031Z,9.00
2023-05-06T03:16:55.108Z,9.20
2023-05-06T03:17:55.024Z,8.40
2023-05-06T03:18:55.014Z,9.10
2023-05-06T03:19:54.992Z,9.90
2023-05-06T03:20:54.957Z,8.70
2023-05-06T03:21:54.960Z,8.30
2023-05-06T03:22:54.941Z,7.90
2023-05-06T03:23:54.941Z,7.50
2023-05-06T03:24:54.934Z,8.20
2023-05-06T03:25:54.932Z,8.20
2023-05-06T03:26:54.894Z,7.20
2023-05-06T03:27:54.816Z,7.90
2023-05-06T03:28:54.833Z,8.40
2023-05-06T03:29:54.819Z,8.70
2023-05-06T03:30:54.784Z,8.60
2023-05-06T03:31:54.890Z,8.60
2023-05-06T03:32:54.886Z,8.80
2023-05-06T03:33:54.761Z,8.10
2023-05-06T03:34:54.734Z,8.60
2023-05-06T03:35:54.717Z,8.20
2023-05-06T03:36:54.704Z,7.60
2023-05-06T03:37:54.711Z,7.00
2023-05-06T03:38:54.663Z,7.00
2023-05-06T03:39:54.677Z,7.30
2023-05-06T03:40:54.639Z,6.60
2023-05-06T03:41:54.636Z,6.30
2023-05-06T03:42:54.633Z,6.70
2023-05-06T03:43:54.608Z,6.60
2023-05-06T03:44:54.624Z,6.20
2023-05-06T03:45:54.611Z,6.20
2023-05-06T03:46:54.560Z,6.70
2023-05-06T03:47:54.610Z,6.20
2023-05-06T03:48:54.591Z,6.50
2023-05-06T03:49:54.556Z,7.20
2023-05-06T03:50:54.518Z,6.40
2023-05-06T03:51:54.502Z,6.10
2023-05-06T03:52:54.515Z,6.40
2023-05-06T03:53:55.030Z,6.40
2023-05-06T03:54:54.457Z,6.10
2023-05-06T03:55:54.449Z,5.60
2023-05-06T03:56:54.450Z,6.10
2023-05-06T03:57:54.471Z,6.10
2023-05-06T03:58:54.412Z,5.90
2023-05-06T03:59:54.403Z,6.40
2023-05-06T04:00:54.399Z,6.00
2023-05-06T04:01:54.388Z,5.90
2023-05-06T04:02:54.446Z,6.70
2023-05-06T04:03:54.381Z,6.00
2023-05-06T04:04:54.333Z,6.40
2023-05-06T04:05:54.335Z,5.70
2023-05-06T04:06:54.360Z,6.00
2023-05-06T04:07:54.284Z,5.80
2023-05-06T04:08:54.282Z,5.80
2023-05-06T04:09:54.289Z,5.60
2023-05-06T04:10:54.288Z,5.70
2023-05-06T04:11:54.607Z,5.10
2023-05-06T04:12:54.259Z,5.70
2023-05-06T04:13:54.223Z,5.60
2023-05-06T04:14:54.202Z,6.00
2023-05-06T04:15:54.310Z,5.70
2023-05-06T04:16:54.201Z,5.80
2023-05-06T04:17:54.160Z,6.00
2023-05-06T04:18:54.151Z,5.60
2023-05-06T04:19:54.137Z,5.40
2023-05-06T04:20:54.142Z,5.50
2023-05-06T04:21:54.124Z,5.40
2023-05-06T04:22:54.100Z,5.20
2023-05-06T04:23:54.070Z,5.00
2023-05-06T04:24:54.066Z,5.30
2023-05-06T04:25:54.089Z,5.80
2023-05-06T04:26:54.039Z,5.00
2023-05-06T04:27:54.035Z,5.20
2023-05-06T04:28:54.016Z,5.20
2023-05-06T04:29:54.009Z,4.80
2023-05-06T04:30:54.001Z,5.10
2023-05-06T04:31:54.174Z,4.80
2023-05-06T04:32:53.992Z,5.00
2023-05-06T04:33:53.954Z,4.60
2023-05-06T04:34:53.978Z,5.10
2023-05-06T04:35:54.000Z,4.70
2023-05-06T04:36:53.911Z,5.10
2023-05-06T04:37:53.911Z,5.30
2023-05-06T04:38:53.883Z,4.90
2023-05-06T04:39:53.888Z,5.00
2023-05-06T04:40:53.868Z,5.10
2023-05-06T04:41:53.833Z,5.10
2023-05-06T04:42:53.850Z,4.90
2023-05-06T04:43:53.806Z,4.70
2023-05-06T04:44:53.822Z,4.90
2023-05-06T04:45:53.842Z,5.00
2023-05-06T04:46:53.776Z,4.70
2023-05-06T04:47:53.780Z,4.60
2023-05-06T04:48:53.764Z,4.60
2023-05-06T04:49:53.758Z,4.80
2023-05-06T04:50:53.745Z,5.10
2023-05-06T04:51:53.718Z,4.50
2023-05-06T04:52:53.697Z,4.90
2023-05-06T04:53:53.692Z,4.70
2023-05-06T04:54:53.704Z,4.60
2023-05-06T04:55:53.660Z,4.60
2023-05-06T04:56:53.649Z,4.10
2023-05-06T04:57:53.637Z,5.10
2023-05-06T04:58:53.638Z,4.60
2023-05-06T04:59:53.600Z,4.80
2023-05-06T05:00:53.652Z,4.70
2023-05-06T05:01:53.576Z,4.70
2023-05-06T05:02:53.640Z,4.60
2023-05-06T05:03:53.572Z,4.80
2023-05-06T05:04:53.555Z,4.40
2023-05-06T05:05:53.538Z,4.10
2023-05-06T05:06:53.518Z,4.40
2023-05-06T05:07:53.526Z,4.10
2023-05-06T05:08:55.240Z,4.20
2023-05-06T05:09:53.466Z,4.20
2023-05-06T05:10:53.471Z,4.60
2023-05-06T05:11:53.450Z,4.10
2023-05-06T05:12:53.527Z,4.20
2023-05-06T05:13:55.384Z,4.70
2023-05-06T05:14:53.411Z,4.60
2023-05-06T05:15:53.386Z,4.60
2023-05-06T05:16:53.449Z,4.00
2023-05-06T05:17:53.393Z,3.70
2023-05-06T05:18:53.373Z,7.80
2023-05-06T05:19:53.354Z,6.70
2023-05-06T05:20:53.330Z,6.00
2023-05-06T05:21:53.313Z,6.60
2023-05-06T05:22:53.320Z,5.20
2023-05-06T05:23:53.311Z,6.00
2023-05-06T05:24:53.286Z,6.30
2023-05-06T05:25:53.251Z,5.60
2023-05-06T05:26:53.255Z,5.80
2023-05-06T05:27:53.272Z,8.80
2023-05-06T05:28:53.243Z,9.30
2023-05-06T05:29:53.211Z,6.00
2023-05-06T05:30:53.293Z,4.20
2023-05-06T05:31:53.193Z,4.00
2023-05-06T05:32:53.269Z,3.70
2023-05-06T05:33:53.220Z,3.80
2023-05-06T05:34:53.178Z,3.80
2023-05-06T05:35:53.134Z,3.90
2023-05-06T05:36:53.145Z,3.70
2023-05-06T05:37:53.111Z,3.50
2023-05-06T05:38:53.086Z,3.40
2023-05-06T05:39:53.069Z,3.80
2023-05-06T05:40:53.088Z,3.40
2023-05-06T05:41:53.085Z,3.20
2023-05-06T05:42:53.041Z,3.00
2023-05-06T05:43:53.009Z,3.30
2023-05-06T05:44:53.000Z,3.50
2023-05-06T05:45:53.035Z,3.90
2023-05-06T05:46:53.027Z,3.50
2023-05-06T05:47:53.037Z,3.00
2023-05-06T05:48:52.994Z,3.10
2023-05-06T05:49:52.956Z,3.40
2023-05-06T05:50:52.965Z,3.30
2023-05-06T05:51:52.922Z,3.40
2023-05-06T05:52:52.902Z,3.30
2023-05-06T05:53:52.872Z,3.30
2023-05-06T05:54:52.894Z,3.30
2023-05-06T05:55:53.258Z,3.60
2023-05-06T05:56:52.858Z,3.40
2023-05-06T05:57:52.830Z,3.50
2023-05-06T05:58:52.817Z,3.40
2023-05-06T05:59:52.836Z,3.50
2023-05-06T06:00:52.796Z,3.20
2023-05-06T06:01:52.789Z,3.40
2023-05-06T06:02:52.819Z,3.00
2023-05-06T06:03:52.924Z,3.40
2023-05-06T06:04:52.919Z,3.30
2023-05-06T06:05:52.722Z,3.40
2023-05-06T06:06:52.723Z,3.50
2023-05-06T06:07:52.690Z,3.50
2023-05-06T06:08:52.727Z,3.90
2023-05-06T06:09:52.658Z,3.70
2023-05-06T06:10:52.666Z,4.50
2023-05-06T06:11:52.649Z,4.50
2023-05-06T06:12:52.727Z,3.60
2023-05-06T06:13:52.663Z,3.70
2023-05-06T06:14:52.634Z,4.00
2023-05-06T06:15:52.748Z,3.90
2023-05-06T06:16:52.580Z,3.50
2023-05-06T06:17:52.577Z,3.80
2023-05-06T06:18:52.546Z,3.90
2023-05-06T06:19:52.579Z,4.40
2023-05-06T06:22:08.602Z,4.00
2023-05-06T06:23:09.584Z,4.00
2023-05-06T06:24:09.552Z,4.20
2023-05-06T06:25:09.741Z,4.00
2023-05-06T06:26:12.114Z,4.00
2023-05-06T06:27:09.521Z,4.10
2023-05-06T06:28:09.503Z,3.90
2023-05-06T06:29:09.501Z,3.90
2023-05-06T06:30:09.542Z,3.90
2023-05-06T06:31:09.476Z,3.80
2023-05-06T06:32:09.579Z,3.60
2023-05-06T06:33:09.467Z,3.70
2023-05-06T06:34:09.443Z,3.70
2023-05-06T06:35:09.649Z,3.50
2023-05-06T06:36:09.413Z,3.50
2023-05-06T06:37:09.414Z,3.80
2023-05-06T06:38:09.388Z,4.10
2023-05-06T06:39:09.357Z,3.40
2023-05-06T06:40:09.361Z,3.80
2023-05-06T06:41:09.333Z,3.70
2023-05-06T06:42:09.357Z,4.70
2023-05-06T06:43:09.297Z,4.30
2023-05-06T06:44:09.306Z,4.10
2023-05-06T06:45:09.430Z,4.90
2023-05-06T06:46:09.305Z,4.00
2023-05-06T06:47:09.272Z,3.70
2023-05-06T06:48:09.270Z,3.50
2023-05-06T06:49:09.223Z,3.70
2023-05-06T06:50:09.208Z,4.00
2023-05-06T06:51:09.216Z,3.90
2023-05-06T06:52:09.181Z,3.70
2023-05-06T06:53:09.169Z,3.60
2023-05-06T06:54:09.160Z,3.70
2023-05-06T06:55:09.266Z,3.40
2023-05-06T06:56:09.152Z,3.60
2023-05-06T06:57:09.125Z,3.50
2023-05-06T06:58:09.145Z,3.20
2023-05-06T06:59:09.108Z,3.30
2023-05-06T07:00:09.088Z,3.80
2023-05-06T07:01:09.084Z,3.60
2023-05-06T07:02:09.063Z,4.10
2023-05-06T07:03:09.089Z,3.90
2023-05-06T07:04:09.061Z,4.50
2023-05-06T07:05:09.196Z,4.70
2023-05-06T07:06:09.037Z,4.20
2023-05-06T07:07:08.980Z,4.20
2023-05-06T07:08:08.991Z,4.10
2023-05-06T07:09:08.977Z,4.40
2023-05-06T07:10:08.951Z,4.00
2023-05-06T07:11:08.932Z,4.40
2023-05-06T07:12:08.933Z,4.10
2023-05-06T07:13:08.965Z,4.50
2023-05-06T07:14:08.900Z,4.50
2023-05-06T07:15:09.363Z,4.60
2023-05-06T07:16:08.874Z,4.40
2023-05-06T07:17:08.883Z,4.20
2023-05-06T07:18:08.918Z,4.50
2023-05-06T07:19:08.825Z,4.00
2023-05-06T07:20:08.855Z,3.90
2023-05-06T07:21:08.813Z,4.00
2023-05-06T07:22:08.820Z,3.80
2023-05-06T07:23:08.779Z,4.40
2023-05-06T07:24:08.769Z,4.20
2023-05-06T07:25:09.430Z,4.10
2023-05-06T07:26:08.745Z,3.90
2023-05-06T07:27:08.719Z,4.10
2023-05-06T07:28:08.720Z,4.10
2023-05-06T07:29:08.713Z,3.70
2023-05-06T07:30:08.679Z,4.10
2023-05-06T07:31:08.707Z,3.80
2023-05-06T07:32:08.674Z,4.10
2023-05-06T07:33:08.642Z,4.00
2023-05-06T07:34:08.633Z,3.90
2023-05-06T07:35:08.831Z,3.80
2023-05-06T07:36:08.621Z,4.00
2023-05-06T07:37:08.614Z,4.20
2023-05-06T07:38:08.576Z,4.00
2023-05-06T07:39:08.582Z,4.20
2023-05-06T07:40:08.585Z,4.30
2023-05-06T07:41:08.539Z,4.30
2023-05-06T07:42:08.540Z,3.80
2023-05-06T07:43:08.508Z,4.10
2023-05-06T07:44:08.534Z,3.80
2023-05-06T07:45:08.606Z,3.60
2023-05-06T07:46:08.484Z,3.50
2023-05-06T07:47:08.504Z,3.10
2023-05-06T07:48:08.499Z,4.00
2023-05-06T07:49:08.449Z,3.70
2023-05-06T07:50:08.436Z,4.00
2023-05-06T07:51:08.397Z,4.10
2023-05-06T07:52:08.398Z,3.90
2023-05-06T07:53:08.401Z,3.80
2023-05-06T07:54:08.394Z,3.70
2023-05-06T07:55:08.702Z,4.20
2023-05-06T07:56:08.340Z,3.90
2023-05-06T07:57:08.418Z,3.50
2023-05-06T07:58:08.312Z,4.00
2023-05-06T07:59:08.300Z,3.80
2023-05-06T08:00:08.333Z,3.60
2023-05-06T08:01:08.276Z,3.90
2023-05-06T08:02:08.291Z,3.70
2023-05-06T08:03:08.357Z,3.50
2023-05-06T08:04:08.370Z,4.00
2023-05-06T08:05:08.335Z,4.10
2023-05-06T08:06:08.199Z,3.50
2023-05-06T08:07:08.194Z,4.20
2023-05-06T08:08:08.218Z,4.00
2023-05-06T08:09:08.156Z,3.70
2023-05-06T08:10:08.181Z,3.80
2023-05-06T08:11:08.130Z,3.80
2023-05-06T08:12:08.149Z,3.60
2023-05-06T08:13:08.155Z,3.60
2023-05-06T08:14:08.100Z,5.30
2023-05-06T08:15:08.249Z,3.90
2023-05-06T08:16:08.220Z,3.70
2023-05-06T08:17:08.203Z,3.80
2023-05-06T08:18:20.862Z,3.80
2023-05-06T08:19:08.051Z,4.00
2023-05-06T08:20:08.023Z,4.30
2023-05-06T08:21:08.008Z,4.00
2023-05-06T08:22:08.008Z,3.30
2023-05-06T08:23:07.987Z,3.60
2023-05-06T08:24:07.992Z,3.30
2023-05-06T08:25:08.090Z,4.10
2023-05-06T08:26:07.955Z,3.70
2023-05-06T08:27:07.939Z,3.80
2023-05-06T08:28:07.959Z,5.80
2023-05-06T08:29:07.920Z,10.00
2023-05-06T08:30:07.901Z,7.90
2023-05-06T08:31:07.872Z,4.00
2023-05-06T08:32:07.946Z,4.30
2023-05-06T08:33:07.938Z,4.70
2023-05-06T08:34:07.853Z,4.20
2023-05-06T08:35:07.882Z,4.20
2023-05-06T08:36:07.824Z,4.20
2023-05-06T08:37:07.794Z,4.00
2023-05-06T08:38:07.794Z,4.30
2023-05-06T08:39:07.759Z,4.40
2023-05-06T08:40:07.756Z,4.00
2023-05-06T08:41:07.753Z,4.20
2023-05-06T08:42:07.744Z,4.40
2023-05-06T08:43:07.710Z,4.60
2023-05-06T08:44:07.774Z,4.40
2023-05-06T08:45:07.780Z,4.30
2023-05-06T08:46:07.734Z,8.30
2023-05-06T08:47:07.681Z,6.50
2023-05-06T08:48:07.652Z,4.30
2023-05-06T08:49:07.637Z,3.90
2023-05-06T08:50:07.638Z,4.10
2023-05-06T08:51:07.598Z,8.00
2023-05-06T08:52:07.645Z,8.30
2023-05-06T08:53:07.591Z,8.60
2023-05-06T08:54:07.566Z,7.80
2023-05-06T08:55:07.619Z,9.90
2023-05-06T08:56:07.540Z,6.90
2023-05-06T08:57:07.914Z,7.60
2023-05-06T08:58:07.525Z,12.90
2023-05-06T08:59:07.540Z,8.50
2023-05-06T09:00:07.528Z,10.10
2023-05-06T09:01:07.519Z,4.20
2023-05-06T09:02:07.496Z,3.70
2023-05-06T09:03:07.578Z,5.00
2023-05-06T09:04:07.470Z,4.40
2023-05-06T09:05:07.457Z,7.90
2023-05-06T09:06:07.421Z,5.90
2023-05-06T09:07:07.384Z,6.00
2023-05-06T09:08:07.396Z,4.50
2023-05-06T09:09:07.370Z,6.00
2023-05-06T09:10:07.402Z,3.70
2023-05-06T09:11:07.362Z,3.70
2023-05-06T09:12:07.339Z,3.70
2023-05-06T09:13:07.329Z,3.80
2023-05-06T09:14:07.323Z,3.90
2023-05-06T09:15:07.321Z,4.90
2023-05-06T09:16:07.300Z,3.80
2023-05-06T09:17:07.311Z,3.60
2023-05-06T09:18:07.260Z,3.30
2023-05-06T09:19:07.233Z,3.70
2023-05-06T09:20:07.239Z,3.50
2023-05-06T09:21:07.247Z,3.50
2023-05-06T09:22:07.192Z,3.40
2023-05-06T09:23:07.205Z,3.70
2023-05-06T09:24:07.160Z,3.60
2023-05-06T09:25:07.258Z,3.20
2023-05-06T09:26:07.205Z,3.40
2023-05-06T09:27:08.429Z,3.20
2023-05-06T09:28:07.119Z,3.20
2023-05-06T09:29:07.115Z,3.30
2023-05-06T09:30:07.132Z,3.20
2023-05-06T09:31:07.258Z,3.30
2023-05-06T09:32:07.081Z,3.50
2023-05-06T09:33:07.064Z,3.30
2023-05-06T09:34:07.034Z,3.00
2023-05-06T09:35:07.061Z,2.80
2023-05-06T09:36:07.018Z,3.10
2023-05-06T09:37:07.007Z,2.90
2023-05-06T09:38:07.384Z,3.60
2023-05-06T09:39:07.004Z,3.00
2023-05-06T09:40:06.989Z,3.50
2023-05-06T09:41:06.977Z,2.70
2023-05-06T09:42:06.961Z,3.40
2023-05-06T09:43:06.976Z,2.70
2023-05-06T09:44:06.961Z,2.60
2023-05-06T09:45:06.944Z,2.40
2023-05-06T09:46:07.023Z,2.50
2023-05-06T09:47:06.932Z,2.50
2023-05-06T09:48:06.938Z,2.40
2023-05-06T09:49:06.896Z,2.50
2023-05-06T09:50:06.837Z,2.10
2023-05-06T09:51:06.851Z,2.10
2023-05-06T09:52:06.829Z,2.20
2023-05-06T09:53:06.812Z,1.70
2023-05-06T09:54:06.809Z,1.80
2023-05-06T09:55:06.768Z,1.40
2023-05-06T09:56:06.769Z,1.70
2023-05-06T09:57:06.744Z,2.00
2023-05-06T09:58:06.727Z,1.70
2023-05-06T09:59:06.719Z,1.90
2023-05-06T10:00:06.730Z,1.90
2023-05-06T10:01:06.718Z,1.60
2023-05-06T10:02:06.722Z,1.70
2023-05-06T10:03:06.818Z,1.70
2023-05-06T10:04:06.901Z,1.60
2023-05-06T10:05:06.732Z,1.50
2023-05-06T10:06:06.620Z,2.00
2023-05-06T10:07:06.661Z,1.60
2023-05-06T10:08:06.612Z,1.80
2023-05-06T10:09:06.568Z,2.10
2023-05-06T10:10:06.585Z,1.90
2023-05-06T10:11:06.547Z,1.90
2023-05-06T10:12:06.538Z,2.10
2023-05-06T10:13:06.605Z,1.80
2023-05-06T10:14:06.524Z,1.90
2023-05-06T10:15:06.519Z,1.50
2023-05-06T10:16:06.532Z,1.60
2023-05-06T10:17:06.473Z,1.70
2023-05-06T10:18:06.557Z,1.70
2023-05-06T10:19:06.583Z,1.60
2023-05-06T10:20:06.431Z,1.60
2023-05-06T10:21:06.426Z,1.70
2023-05-06T10:22:06.453Z,1.90
2023-05-06T10:23:06.389Z,1.50
2023-05-06T10:24:06.391Z,1.40
2023-05-06T10:25:06.380Z,1.50
2023-05-06T10:26:06.350Z,1.90
2023-05-06T10:27:06.355Z,1.70
2023-05-06T10:28:06.794Z,1.60
2023-05-06T10:29:06.332Z,1.70
2023-05-06T10:30:06.292Z,1.50
2023-05-06T10:31:06.286Z,1.60
2023-05-06T10:32:06.392Z,1.70
2023-05-06T10:33:06.297Z,1.70
2023-05-06T10:34:06.238Z,2.00
2023-05-06T10:35:06.228Z,1.80
2023-05-06T10:36:06.221Z,1.90
2023-05-06T10:37:06.212Z,1.60
2023-05-06T10:38:06.186Z,1.60
2023-05-06T10:39:06.176Z,1.60
2023-05-06T10:40:06.155Z,1.60
2023-05-06T10:41:06.161Z,1.70
2023-05-06T10:42:06.144Z,1.70
2023-05-06T10:43:06.123Z,1.70
2023-05-06T10:44:06.164Z,1.40
2023-05-06T10:45:06.112Z,2.00
2023-05-06T10:46:06.196Z,1.60
2023-05-06T10:47:06.088Z,1.80
2023-05-06T10:48:06.098Z,1.60
2023-05-06T10:49:06.110Z,1.70
2023-05-06T10:50:06.039Z,2.00
2023-05-06T10:51:06.013Z,1.50
2023-05-06T10:52:06.034Z,1.50
2023-05-06T10:53:05.998Z,1.50
2023-05-06T10:54:05.963Z,1.80
2023-05-06T10:55:06.034Z,1.50
2023-05-06T10:56:05.982Z,2.10
2023-05-06T10:57:05.940Z,2.00
2023-05-06T10:58:05.924Z,1.50
2023-05-06T10:59:05.923Z,1.80
2023-05-06T11:00:05.940Z,1.80
2023-05-06T11:01:05.953Z,1.80
2023-05-06T11:02:05.913Z,1.80
2023-05-06T11:03:05.961Z,1.80
2023-05-06T11:04:05.835Z,1.60
2023-05-06T11:05:05.864Z,1.80
2023-05-06T11:06:05.813Z,1.40
2023-05-06T11:07:05.810Z,1.50
2023-05-06T11:08:05.793Z,1.50
2023-05-06T11:09:05.819Z,1.80
2023-05-06T11:10:05.789Z,1.40
2023-05-06T11:11:05.759Z,1.60
2023-05-06T11:12:05.767Z,1.50
2023-05-06T11:13:05.795Z,1.50
2023-05-06T11:14:05.721Z,1.60
2023-05-06T11:15:05.728Z,1.60
2023-05-06T11:16:05.689Z,1.60
2023-05-06T11:17:05.824Z,1.60
2023-05-06T11:18:05.728Z,1.90
2023-05-06T11:19:05.672Z,1.80
2023-05-06T11:20:05.641Z,1.50
2023-05-06T11:21:05.656Z,1.40
2023-05-06T11:22:05.615Z,1.50
2023-05-06T11:23:05.605Z,1.40
2023-05-06T11:24:05.592Z,1.60
2023-05-06T11:25:05.588Z,1.50
2023-05-06T11:26:05.559Z,1.60
2023-05-06T11:27:05.541Z,1.70
2023-05-06T11:28:05.547Z,1.40
2023-05-06T11:29:05.523Z,1.50
2023-05-06T11:30:05.528Z,1.50
2023-05-06T11:31:05.607Z,1.50
2023-05-06T11:32:05.495Z,1.30
2023-05-06T11:33:05.928Z,1.50
2023-05-06T11:34:05.455Z,1.50
2023-05-06T11:35:05.471Z,1.40
2023-05-06T11:36:05.462Z,1.30
2023-05-06T11:37:05.415Z,2.00
2023-05-06T11:38:05.435Z,1.40
2023-05-06T11:39:05.388Z,1.50
2023-05-06T11:40:05.392Z,1.50
2023-05-06T11:41:05.374Z,1.40
2023-05-06T11:42:05.345Z,1.40
2023-05-06T11:43:05.357Z,1.70
2023-05-06T11:44:05.321Z,1.50
2023-05-06T11:45:05.315Z,1.40
2023-05-06T11:46:05.363Z,1.40
2023-05-06T11:47:05.295Z,1.20
2023-05-06T11:48:05.312Z,1.50
2023-05-06T11:49:05.274Z,1.40
2023-05-06T11:50:05.241Z,1.40
2023-05-06T11:51:05.239Z,1.40
2023-05-06T11:52:05.248Z,1.50
2023-05-06T11:53:05.217Z,1.40
2023-05-06T11:54:05.195Z,1.40
2023-05-06T11:55:05.175Z,1.40
2023-05-06T11:56:05.165Z,1.60
2023-05-06T11:57:05.176Z,1.80
2023-05-06T11:58:05.140Z,1.50
2023-05-06T11:59:05.124Z,1.50
2023-05-06T12:00:05.101Z,1.60
2023-05-06T12:01:05.112Z,1.40
2023-05-06T12:02:05.097Z,1.40
2023-05-06T12:03:05.211Z,1.30
2023-05-06T12:04:05.212Z,1.30
2023-05-06T12:05:05.050Z,1.40
2023-05-06T12:06:05.038Z,1.40
2023-05-06T12:07:05.066Z,1.20
2023-05-06T12:08:08.468Z,1.20
2023-05-06T12:09:04.991Z,1.30
2023-05-06T12:10:05.089Z,1.20
2023-05-06T12:11:05.020Z,1.50
2023-05-06T12:12:04.989Z,1.20
2023-05-06T12:13:05.037Z,1.30
2023-05-06T12:14:04.943Z,1.20
2023-05-06T12:15:04.922Z,1.40
2023-05-06T12:16:04.967Z,1.20
2023-05-06T12:17:04.918Z,1.20
2023-05-06T12:18:04.921Z,1.40
2023-05-06T12:19:04.895Z,1.30
2023-05-06T12:20:04.904Z,1.30
2023-05-06T12:21:04.867Z,1.40
2023-05-06T12:22:10.885Z,1.40
2023-05-06T12:23:04.811Z,1.20
2023-05-06T12:24:04.831Z,1.20
2023-05-06T12:25:04.782Z,1.20
2023-05-06T12:26:04.789Z,1.10
2023-05-06T12:27:04.765Z,1.30
2023-05-06T12:28:04.749Z,1.30
2023-05-06T12:29:04.742Z,1.60
2023-05-06T12:30:05.000Z,1.20
2023-05-06T12:31:04.733Z,1.30
2023-05-06T12:32:04.784Z,1.30
2023-05-06T12:33:04.725Z,1.40
2023-05-06T12:34:04.658Z,1.40
2023-05-06T12:35:04.649Z,1.50
2023-05-06T12:36:04.659Z,1.50
2023-05-06T12:37:04.700Z,1.40
2023-05-06T12:38:04.620Z,1.40
2023-05-06T12:39:04.607Z,1.30
2023-05-06T12:40:04.591Z,1.20
2023-05-06T12:41:04.592Z,1.20
2023-05-06T12:42:04.562Z,1.40
2023-05-06T12:43:04.530Z,1.50
2023-05-06T12:44:04.538Z,1.40
2023-05-06T12:45:04.576Z,1.30
2023-05-06T12:46:04.652Z,1.50
2023-05-06T12:47:04.553Z,1.40
2023-05-06T12:48:04.520Z,1.40
2023-05-06T12:49:04.475Z,1.40
2023-05-06T12:50:04.454Z,1.40
2023-05-06T12:51:04.460Z,1.40
2023-05-06T12:52:04.424Z,1.40
2023-05-06T12:53:04.434Z,1.20
2023-05-06T12:54:04.417Z,1.30
2023-05-06T12:55:04.443Z,1.40
2023-05-06T12:56:04.454Z,1.50
2023-05-06T12:57:04.385Z,1.40
2023-05-06T12:58:04.363Z,1.30
2023-05-06T12:59:04.379Z,1.50
2023-05-06T13:00:04.357Z,1.20
2023-05-06T13:01:04.368Z,1.50
2023-05-06T13:02:04.335Z,1.60
2023-05-06T13:03:04.386Z,1.20
2023-05-06T13:04:04.423Z,1.10
2023-05-06T13:05:04.289Z,1.30
2023-05-06T13:06:04.255Z,1.30
2023-05-06T13:07:04.284Z,1.30
2023-05-06T13:08:04.220Z,1.50
2023-05-06T13:09:04.247Z,1.30
2023-05-06T13:10:04.200Z,1.20
2023-05-06T13:11:04.203Z,1.20
2023-05-06T13:12:04.175Z,1.20
2023-05-06T13:13:04.229Z,1.20
2023-05-06T13:14:04.161Z,1.30
2023-05-06T13:15:04.149Z,1.10
2023-05-06T13:16:04.179Z,1.30
2023-05-06T13:17:04.165Z,1.10
2023-05-06T13:18:04.120Z,1.50
2023-05-06T13:19:04.103Z,1.20
2023-05-06T13:20:05.219Z,1.30
2023-05-06T13:21:04.059Z,1.10